Feltonville, Pennsylvania
Current Conditions -  °F | °C
As of 11:54 PM on Saturday 25 Oct 2014 (Local Time) from KPHL Reporting Station
Broken Clouds Broken Clouds  
Wind Chill: 59°   Ceiling: 9000
Heat Index: 59°   Visibility: 10mi
Dew Point: 44°   Wind: 13mph
Humidity: 58%   Direction: 230°SW
Pressure: 29.63"   Gusts: NA
Location:  39.8463°N, 75.374°W
Report Text: KPHL 260354Z 23011KT 10SM BKN090 15/07 A2963 RMK AO2 SLP034 T01500067
Loading
Personal Weather Stations






























Interactive Weather Map
Tropical Storm Tracking
New forecast layout! Learn more

10-Day Weather Forecast

Advertisements
Track Severe Weather on mobile